Time;durP1;ratioP1;P1;durP2;ratioP2;P2;SDS_P1;SDS_P2;PMS_P1;PMS_P2;Temp;Humidity;BMP_temperature;BMP_pressure;BME280_temperature;BME280_humidity;BME280_pressure;Samples;Min_cycle;Max_cycle;Signal;HPM_P1;HPM_P2
2019/08/31 00:02:04;;;;;;;15.4;12.3;;;;;;;21.21;75.44824;1004.578;;;;
2019/08/31 00:04:29;;;;;;;14.9;12;;;;;;;21.16;75.52246;1004.567;;;;
2019/08/31 00:06:55;;;;;;;15.5;11.7;;;;;;;21.17;75.49023;1004.545;;;;
2019/08/31 00:09:20;;;;;;;17;11.8;;;;;;;21.18;75.4082;1004.568;;;;
2019/08/31 00:11:45;;;;;;;16;11.8;;;;;;;21.14;75.55664;1004.549;;;;
2019/08/31 00:14:10;;;;;;;14.9;12;;;;;;;21.08;75.70801;1004.539;;;;
2019/08/31 00:16:35;;;;;;;16.7;12.3;;;;;;;21.01;75.9668;1004.518;;;;
2019/08/31 00:19:01;;;;;;;16.8;12.3;;;;;;;21;75.91895;1004.484;;;;
2019/08/31 00:21:26;;;;;;;15.3;11.5;;;;;;;20.91;76.29199;1004.464;;;;
2019/08/31 00:23:51;;;;;;;14.4;11.7;;;;;;;20.87;76.50488;1004.463;;;;
2019/08/31 00:26:16;;;;;;;16.5;12.3;;;;;;;20.8;76.83398;1004.496;;;;
2019/08/31 00:28:41;;;;;;;14.5;11.6;;;;;;;20.75;77.04688;1004.51;;;;
2019/08/31 00:31:06;;;;;;;14.7;11.5;;;;;;;20.71;77.16992;1004.511;;;;
2019/08/31 00:33:31;;;;;;;15.3;11.9;;;;;;;20.77;77.16797;1004.513;;;;
2019/08/31 00:35:57;;;;;;;14.9;11.3;;;;;;;20.79;76.99609;1004.452;;;;
2019/08/31 00:38:22;;;;;;;15.1;11.4;;;;;;;20.79;76.66797;1004.45;;;;
2019/08/31 00:40:47;;;;;;;15;11.3;;;;;;;20.78;76.60645;1004.45;;;;
2019/08/31 00:43:12;;;;;;;14.8;11.5;;;;;;;20.71;76.66602;1004.409;;;;
2019/08/31 00:45:37;;;;;;;15.4;11.8;;;;;;;20.71;76.64258;1004.397;;;;
2019/08/31 00:48:02;;;;;;;15.6;11.6;;;;;;;20.64;76.95605;1004.372;;;;
2019/08/31 00:50:28;;;;;;;14.7;11.4;;;;;;;20.6;77.1377;1004.382;;;;
2019/08/31 00:52:53;;;;;;;15.4;11.7;;;;;;;20.58;77.2168;1004.358;;;;
2019/08/31 00:55:18;;;;;;;16.1;11.5;;;;;;;20.6;77.2334;1004.321;;;;
2019/08/31 00:57:43;;;;;;;16.7;11.6;;;;;;;20.69;76.98926;1004.293;;;;
2019/08/31 01:00:08;;;;;;;14.2;11.7;;;;;;;20.71;76.92383;1004.289;;;;
2019/08/31 01:02:34;;;;;;;14.6;11.5;;;;;;;20.77;76.72266;1004.301;;;;
2019/08/31 01:04:59;;;;;;;19;12.1;;;;;;;20.86;76.24512;1004.252;;;;
2019/08/31 01:07:24;;;;;;;14.4;11.7;;;;;;;20.88;76.1084;1004.203;;;;
2019/08/31 01:09:50;;;;;;;15;11.2;;;;;;;20.83;76.27637;1004.202;;;;
2019/08/31 01:12:14;;;;;;;14.8;11.9;;;;;;;20.85;76.26758;1004.2;;;;
2019/08/31 01:14:40;;;;;;;14.3;11.6;;;;;;;20.88;76.16797;1004.213;;;;
2019/08/31 01:17:05;;;;;;;14.4;11.8;;;;;;;20.86;76.22363;1004.151;;;;
2019/08/31 01:19:31;;;;;;;14.9;11.9;;;;;;;20.85;76.29102;1004.141;;;;
2019/08/31 01:21:56;;;;;;;15.1;12.1;;;;;;;20.86;76.31543;1004.137;;;;
2019/08/31 01:24:21;;;;;;;15.5;12.4;;;;;;;20.81;76.58887;1004.103;;;;
2019/08/31 01:26:46;;;;;;;15.1;12.6;;;;;;;20.84;76.44141;1004.025;;;;
2019/08/31 01:29:11;;;;;;;17.3;12.4;;;;;;;20.79;76.62109;1004.059;;;;
2019/08/31 01:31:36;;;;;;;16.8;12.4;;;;;;;20.72;76.85352;1004.045;;;;
2019/08/31 01:34:01;;;;;;;15.2;12.3;;;;;;;20.76;76.87305;1004.01;;;;
2019/08/31 01:36:26;;;;;;;16.5;12.3;;;;;;;20.75;76.91797;1004.032;;;;
2019/08/31 01:38:52;;;;;;;16;12.6;;;;;;;20.71;77.03906;1004.029;;;;
2019/08/31 01:41:17;;;;;;;17.3;12.1;;;;;;;20.76;76.91992;1004.049;;;;
2019/08/31 01:43:42;;;;;;;17.5;12.8;;;;;;;20.83;76.56738;1004.007;;;;
2019/08/31 01:46:07;;;;;;;15.5;12.8;;;;;;;20.81;76.60059;1003.948;;;;
2019/08/31 01:48:33;;;;;;;16.7;12.3;;;;;;;20.85;76.38477;1003.966;;;;
2019/08/31 01:50:58;;;;;;;19.3;12.6;;;;;;;20.78;76.65332;1004.015;;;;
2019/08/31 01:53:23;;;;;;;16.6;12.7;;;;;;;20.81;76.50684;1003.992;;;;
2019/08/31 01:55:49;;;;;;;15.7;12.7;;;;;;;20.78;76.53613;1003.968;;;;
2019/08/31 01:58:14;;;;;;;16.4;12.7;;;;;;;20.68;76.7666;1003.943;;;;
2019/08/31 02:00:39;;;;;;;15;12.6;;;;;;;20.51;77.43848;1003.948;;;;
2019/08/31 02:03:04;;;;;;;16.2;12.8;;;;;;;20.4;77.83105;1003.886;;;;
2019/08/31 02:05:29;;;;;;;14.9;11.7;;;;;;;20.44;77.70801;1003.928;;;;
2019/08/31 02:07:54;;;;;;;15;11.8;;;;;;;20.24;78.49316;1003.875;;;;
2019/08/31 02:10:19;;;;;;;16.2;12.8;;;;;;;20.17;78.98145;1003.845;;;;
2019/08/31 02:12:45;;;;;;;14.8;12.4;;;;;;;20.16;78.86426;1003.835;;;;
2019/08/31 02:15:10;;;;;;;16.7;12.6;;;;;;;20.11;79.11035;1003.839;;;;
2019/08/31 02:17:35;;;;;;;15;12.1;;;;;;;20.07;79.19922;1003.835;;;;
2019/08/31 02:20:00;;;;;;;18.1;11.8;;;;;;;20.05;79.07715;1003.792;;;;
2019/08/31 02:22:25;;;;;;;14.7;11.6;;;;;;;20.05;79.00781;1003.742;;;;
2019/08/31 02:24:50;;;;;;;17.6;12.4;;;;;;;20;79.11523;1003.713;;;;
2019/08/31 02:27:15;;;;;;;16.6;12;;;;;;;19.97;79.28516;1003.674;;;;
2019/08/31 02:29:40;;;;;;;17.1;12.3;;;;;;;19.97;79.21484;1003.639;;;;
2019/08/31 02:32:06;;;;;;;16;12.1;;;;;;;19.95;79.42285;1003.612;;;;
2019/08/31 02:34:31;;;;;;;17.7;11.8;;;;;;;19.97;79.30859;1003.537;;;;
2019/08/31 02:36:56;;;;;;;15.3;12.1;;;;;;;19.93;79.50098;1003.486;;;;
2019/08/31 02:39:21;;;;;;;16.5;11.4;;;;;;;19.97;79.37891;1003.419;;;;
2019/08/31 02:41:47;;;;;;;16.4;11.7;;;;;;;19.93;79.52441;1003.435;;;;
2019/08/31 02:44:12;;;;;;;14.7;11.5;;;;;;;19.95;79.39941;1003.362;;;;
2019/08/31 02:46:37;;;;;;;16.4;12;;;;;;;19.97;79.37891;1003.306;;;;
2019/08/31 02:49:03;;;;;;;14.6;11.8;;;;;;;19.94;79.62109;1003.29;;;;
2019/08/31 02:51:28;;;;;;;15.6;12.1;;;;;;;19.94;79.37402;1003.241;;;;
2019/08/31 02:53:53;;;;;;;17.2;12.2;;;;;;;19.94;79.44434;1003.242;;;;
2019/08/31 02:56:18;;;;;;;15;12;;;;;;;19.9;79.56641;1003.223;;;;
2019/08/31 02:58:43;;;;;;;14.6;11.4;;;;;;;19.9;79.68164;1003.21;;;;
2019/08/31 03:01:08;;;;;;;17;12.1;;;;;;;19.9;79.69336;1003.155;;;;
2019/08/31 03:03:34;;;;;;;16;12.3;;;;;;;19.78;80.10645;1003.124;;;;
2019/08/31 03:05:59;;;;;;;17.8;12.4;;;;;;;19.77;80.17383;1003.115;;;;
2019/08/31 03:08:24;;;;;;;16.3;12;;;;;;;19.74;80.21582;1003.135;;;;
2019/08/31 03:10:49;;;;;;;15.4;12.2;;;;;;;19.75;80.08887;1003.08;;;;
2019/08/31 03:13:14;;;;;;;15.8;12.3;;;;;;;19.7;80.25586;1003.059;;;;
2019/08/31 03:15:39;;;;;;;18.7;13;;;;;;;19.65;80.59766;1003.082;;;;
2019/08/31 03:18:04;;;;;;;17.6;12.7;;;;;;;19.61;80.84668;1003.09;;;;
2019/08/31 03:20:30;;;;;;;16.2;12.4;;;;;;;19.63;80.8623;1003.027;;;;
2019/08/31 03:22:55;;;;;;;16.2;12;;;;;;;19.73;80.2959;1003.011;;;;
2019/08/31 03:25:20;;;;;;;14.9;11.8;;;;;;;19.87;79.6416;1003.011;;;;
2019/08/31 03:27:45;;;;;;;16;12.5;;;;;;;19.68;80.33203;1003.01;;;;
2019/08/31 03:30:10;;;;;;;15.4;12.4;;;;;;;19.5;81.1875;1003.002;;;;
2019/08/31 03:32:35;;;;;;;15.4;12;;;;;;;19.53;81.20605;1003.041;;;;
2019/08/31 03:35:00;;;;;;;17.7;12.6;;;;;;;19.43;81.49121;1003.043;;;;
2019/08/31 03:37:25;;;;;;;17.2;13;;;;;;;19.41;81.67383;1003.032;;;;
2019/08/31 03:39:51;;;;;;;15.5;11.8;;;;;;;19.64;80.81738;1002.976;;;;
2019/08/31 03:42:16;;;;;;;14.8;12;;;;;;;19.62;80.77734;1002.974;;;;
2019/08/31 03:44:41;;;;;;;16.8;12.5;;;;;;;19.36;81.91016;1002.992;;;;
2019/08/31 03:47:06;;;;;;;17.4;12.4;;;;;;;19.52;81.46191;1002.958;;;;
2019/08/31 03:49:32;;;;;;;17;12.4;;;;;;;19.62;80.91699;1002.925;;;;
2019/08/31 03:51:57;;;;;;;14.4;12.2;;;;;;;19.44;81.69043;1002.931;;;;
2019/08/31 03:54:22;;;;;;;17.3;12.3;;;;;;;19.42;81.86426;1002.911;;;;
2019/08/31 03:56:47;;;;;;;15;11.8;;;;;;;19.51;81.43652;1002.901;;;;
2019/08/31 03:59:12;;;;;;;17.9;13.4;;;;;;;19.25;82.70801;1002.879;;;;
2019/08/31 04:02:28;;;;;;;18.5;13.6;;;;;;;19.13;83.62988;1002.883;;;;
2019/08/31 04:04:53;;;;;;;21;13.9;;;;;;;19.14;83.72656;1002.881;;;;
2019/08/31 04:07:18;;;;;;;19.4;14.3;;;;;;;19.08;84.13379;1002.865;;;;
2019/08/31 04:09:43;;;;;;;18.7;14.2;;;;;;;19.08;84.16895;1002.885;;;;
2019/08/31 04:12:08;;;;;;;19.3;14.2;;;;;;;19.04;84.29004;1002.909;;;;
2019/08/31 04:14:33;;;;;;;18.3;14;;;;;;;19.02;84.41504;1002.878;;;;
2019/08/31 04:16:59;;;;;;;19.7;13.7;;;;;;;19.1;84.04492;1002.931;;;;
2019/08/31 04:19:23;;;;;;;17.8;13.6;;;;;;;19.17;83.49805;1002.944;;;;
2019/08/31 04:21:49;;;;;;;20.1;14.3;;;;;;;18.92;84.73438;1003.007;;;;
2019/08/31 04:24:14;;;;;;;20.3;14.7;;;;;;;18.88;85.07715;1003.047;;;;
2019/08/31 04:26:39;;;;;;;21.6;15;;;;;;;18.92;85.1543;1003.017;;;;
2019/08/31 04:29:04;;;;;;;18.5;14.6;;;;;;;18.94;85.05273;1003.005;;;;
2019/08/31 04:31:29;;;;;;;21.4;15;;;;;;;18.91;85.18945;1002.967;;;;
2019/08/31 04:33:54;;;;;;;20.1;14.8;;;;;;;18.92;85.22461;1002.896;;;;
2019/08/31 04:36:19;;;;;;;18.3;13.8;;;;;;;19.06;84.54004;1002.903;;;;
2019/08/31 04:38:44;;;;;;;19.5;14.6;;;;;;;19.03;84.54492;1002.909;;;;
2019/08/31 04:41:10;;;;;;;22.2;15.1;;;;;;;18.95;85.05469;1002.923;;;;
2019/08/31 04:43:34;;;;;;;18.8;14;;;;;;;19.01;84.76367;1002.937;;;;
2019/08/31 04:46:00;;;;;;;19;15.3;;;;;;;18.91;85.32813;1002.971;;;;
2019/08/31 04:48:25;;;;;;;21.6;15.6;;;;;;;18.84;85.74609;1002.932;;;;
2019/08/31 04:50:50;;;;;;;22.9;16.2;;;;;;;18.81;85.96191;1002.938;;;;
2019/08/31 04:53:15;;;;;;;20.3;15.7;;;;;;;18.83;85.87207;1002.932;;;;
2019/08/31 04:55:40;;;;;;;20.7;15.1;;;;;;;18.92;85.71484;1002.943;;;;
2019/08/31 04:58:05;;;;;;;22.8;15.9;;;;;;;18.99;85.40234;1002.991;;;;
2019/08/31 05:00:31;;;;;;;19.9;15.2;;;;;;;19.09;84.99902;1002.96;;;;
2019/08/31 05:02:56;;;;;;;19;15;;;;;;;19.21;84.38086;1002.967;;;;
2019/08/31 05:05:21;;;;;;;20.9;15.1;;;;;;;19.2;84.4375;1002.94;;;;
2019/08/31 05:07:46;;;;;;;21.6;15.3;;;;;;;19.28;84.39453;1002.986;;;;
2019/08/31 05:10:11;;;;;;;21.2;15.6;;;;;;;19.38;83.8418;1002.948;;;;
2019/08/31 05:12:36;;;;;;;21.5;15.4;;;;;;;19.5;83.30469;1002.953;;;;
2019/08/31 05:15:01;;;;;;;20.9;14.8;;;;;;;19.58;82.78027;1002.948;;;;
2019/08/31 05:17:26;;;;;;;20.2;14.9;;;;;;;19.61;82.64746;1002.945;;;;
2019/08/31 05:19:51;;;;;;;18.9;15;;;;;;;19.7;82.14941;1002.92;;;;
2019/08/31 05:22:16;;;;;;;22.8;15.1;;;;;;;19.73;82.11914;1002.917;;;;
2019/08/31 05:24:41;;;;;;;19.7;14.9;;;;;;;19.83;81.64551;1002.944;;;;
2019/08/31 05:27:06;;;;;;;18.3;14.4;;;;;;;19.87;81.58301;1002.929;;;;
2019/08/31 05:29:31;;;;;;;18.9;13.9;;;;;;;20.02;80.88574;1002.898;;;;
2019/08/31 05:31:57;;;;;;;18.4;14.2;;;;;;;20.18;80.28418;1002.919;;;;
2019/08/31 05:34:22;;;;;;;18;13.6;;;;;;;20.26;79.71191;1002.918;;;;
2019/08/31 05:36:47;;;;;;;17.7;13.3;;;;;;;20.32;79.53613;1002.965;;;;
2019/08/31 05:39:12;;;;;;;17.7;13.5;;;;;;;20.41;79.06152;1002.945;;;;
2019/08/31 05:41:37;;;;;;;17.9;13.8;;;;;;;20.57;78.53711;1002.896;;;;
2019/08/31 05:44:02;;;;;;;18.1;12.5;;;;;;;20.71;77.91797;1002.952;;;;
2019/08/31 05:46:27;;;;;;;15.8;12.6;;;;;;;20.77;77.73145;1003.02;;;;
2019/08/31 05:48:52;;;;;;;16.7;12.9;;;;;;;20.81;77.26953;1002.969;;;;
2019/08/31 05:51:17;;;;;;;16.1;13.1;;;;;;;20.92;76.58496;1003.013;;;;
2019/08/31 05:53:43;;;;;;;16.6;13.3;;;;;;;21.04;76.1377;1002.969;;;;
2019/08/31 05:56:08;;;;;;;14.5;12.6;;;;;;;21.17;75.63086;1002.999;;;;
2019/08/31 05:58:33;;;;;;;16.1;12;;;;;;;21.31;75.00879;1002.964;;;;
2019/08/31 06:00:58;;;;;;;15.3;12.5;;;;;;;21.5;74.37207;1002.993;;;;
2019/08/31 06:03:23;;;;;;;16.9;13;;;;;;;21.61;73.71094;1002.992;;;;
2019/08/31 06:05:48;;;;;;;15.4;12.3;;;;;;;21.78;73.4082;1003.01;;;;
2019/08/31 06:08:13;;;;;;;15.5;12.1;;;;;;;21.99;72.57324;1003.001;;;;
2019/08/31 06:10:39;;;;;;;17;12.4;;;;;;;22.33;71.24316;1002.977;;;;
2019/08/31 06:13:04;;;;;;;14.1;12.1;;;;;;;22.73;69.6709;1002.989;;;;
2019/08/31 06:15:29;;;;;;;15.3;11.4;;;;;;;23.3;67.70898;1002.947;;;;
2019/08/31 06:17:54;;;;;;;15.5;11.2;;;;;;;23.87;65.17676;1002.904;;;;
2019/08/31 06:20:19;;;;;;;16;11.5;;;;;;;24.32;64.02441;1002.896;;;;
2019/08/31 06:22:44;;;;;;;13.5;10.4;;;;;;;25.08;60.86719;1002.887;;;;
2019/08/31 06:25:15;;;;;;;12.5;10.7;;;;;;;25.35;59.99316;1002.888;;;;
2019/08/31 06:27:41;;;;;;;11.9;9.7;;;;;;;25.89;58.41895;1002.869;;;;
2019/08/31 06:30:06;;;;;;;13.8;10.4;;;;;;;26.19;57.83984;1002.825;;;;
2019/08/31 06:32:31;;;;;;;11.7;9.8;;;;;;;26.33;56.62305;1002.842;;;;
2019/08/31 06:34:56;;;;;;;10.1;9;;;;;;;27.02;54.75098;1002.819;;;;
2019/08/31 06:37:21;;;;;;;11.5;9.4;;;;;;;27.29;53.67676;1002.855;;;;
2019/08/31 06:39:46;;;;;;;13;9.4;;;;;;;27.11;54.52344;1002.764;;;;
2019/08/31 06:42:11;;;;;;;10.2;8.9;;;;;;;27.24;53.88477;1002.791;;;;
2019/08/31 06:44:36;;;;;;;9.9;8.6;;;;;;;27.67;52.50977;1002.794;;;;
2019/08/31 06:47:01;;;;;;;10.2;8.5;;;;;;;28.13;51.25293;1002.762;;;;
2019/08/31 06:49:26;;;;;;;12.4;8.9;;;;;;;29.71;47.37891;1002.73;;;;
2019/08/31 06:51:51;;;;;;;10.8;8.6;;;;;;;31.52;43.34375;1002.765;;;;
2019/08/31 06:54:16;;;;;;;8.9;7.6;;;;;;;31.77;41.84277;1002.726;;;;
2019/08/31 06:56:41;;;;;;;11.1;8;;;;;;;31.54;41.90625;1002.735;;;;
2019/08/31 06:59:06;;;;;;;11;8.2;;;;;;;31.42;42.22949;1002.709;;;;
2019/08/31 07:01:32;;;;;;;10.3;8.3;;;;;;;31.09;42.99121;1002.652;;;;
2019/08/31 07:03:57;;;;;;;9.7;8.2;;;;;;;31.13;43.04297;1002.683;;;;
2019/08/31 07:06:22;;;;;;;12.3;8.4;;;;;;;31.95;41.41504;1002.741;;;;
2019/08/31 07:08:47;;;;;;;10.7;8.3;;;;;;;31.13;42.63477;1002.782;;;;
2019/08/31 07:11:12;;;;;;;8.8;7.6;;;;;;;31.93;41.40039;1002.724;;;;
2019/08/31 07:13:37;;;;;;;10.1;8.1;;;;;;;32.72;39.58301;1002.635;;;;
2019/08/31 07:16:02;;;;;;;10.6;7.7;;;;;;;32.62;39.82715;1002.691;;;;
2019/08/31 07:18:27;;;;;;;10.7;7.9;;;;;;;34.4;35.91211;1002.622;;;;
2019/08/31 07:20:52;;;;;;;8.7;7.8;;;;;;;35.32;34.34961;1002.652;;;;
2019/08/31 07:23:17;;;;;;;12;8.3;;;;;;;33.55;37.37598;1002.626;;;;
2019/08/31 07:25:42;;;;;;;8.8;7.7;;;;;;;36.37;32.33008;1002.609;;;;
2019/08/31 07:28:07;;;;;;;8.9;8;;;;;;;34.49;35.60547;1002.574;;;;
2019/08/31 07:30:33;;;;;;;8.7;7.7;;;;;;;35.92;33.01465;1002.663;;;;
2019/08/31 07:32:57;;;;;;;9.8;7.8;;;;;;;34.74;35.18945;1002.596;;;;
2019/08/31 07:35:22;;;;;;;10.8;8;;;;;;;33.78;36.99707;1002.583;;;;
2019/08/31 07:37:48;;;;;;;9.9;7.7;;;;;;;33.44;37.77734;1002.556;;;;
2019/08/31 07:40:14;;;;;;;9.8;7.8;;;;;;;33.64;37.66113;1002.545;;;;
2019/08/31 07:42:38;;;;;;;13.1;8.1;;;;;;;35.09;34.97461;1002.54;;;;
2019/08/31 07:45:03;;;;;;;8.8;7.7;;;;;;;36.43;32.65039;1002.517;;;;
2019/08/31 07:47:28;;;;;;;10.3;7.6;;;;;;;37.21;31.16309;1002.47;;;;
2019/08/31 07:49:53;;;;;;;10;8.3;;;;;;;33.58;37.48828;1002.477;;;;
2019/08/31 07:52:18;;;;;;;13.8;8.8;;;;;;;33.43;38.52441;1002.444;;;;
2019/08/31 07:54:43;;;;;;;11.1;8.3;;;;;;;34.22;37.02148;1002.462;;;;
2019/08/31 07:57:08;;;;;;;9.6;7.9;;;;;;;35.09;35.68848;1002.414;;;;
2019/08/31 07:59:33;;;;;;;9.3;7.9;;;;;;;34.51;35.99316;1002.365;;;;
2019/08/31 08:01:59;;;;;;;9.3;7.5;;;;;;;34.87;36.04492;1002.415;;;;
2019/08/31 08:04:24;;;;;;;8.9;8;;;;;;;33.61;37.47852;1002.384;;;;
2019/08/31 08:06:49;;;;;;;9.3;7.8;;;;;;;32.8;39.40918;1002.377;;;;
2019/08/31 08:09:14;;;;;;;8.8;7.6;;;;;;;35.29;34.56641;1002.396;;;;
2019/08/31 08:11:39;;;;;;;10.3;8;;;;;;;34.73;35.58789;1002.351;;;;
2019/08/31 08:14:04;;;;;;;8.5;7.4;;;;;;;35.48;34.29004;1002.35;;;;
2019/08/31 08:16:29;;;;;;;10.8;7.7;;;;;;;35.38;34.5127;1002.311;;;;
2019/08/31 08:18:54;;;;;;;10.1;7.9;;;;;;;36.66;32.27832;1002.226;;;;
2019/08/31 08:21:19;;;;;;;8.9;7.4;;;;;;;36.2;33.56738;1002.262;;;;
2019/08/31 08:23:44;;;;;;;9.1;7.5;;;;;;;37.49;31.62012;1002.212;;;;
2019/08/31 08:26:09;;;;;;;8.3;7.4;;;;;;;37.3;30.74316;1002.187;;;;
2019/08/31 08:28:35;;;;;;;8.3;7.2;;;;;;;38.87;28.35938;1002.214;;;;
2019/08/31 08:31:00;;;;;;;7.7;7;;;;;;;37.95;29.83691;1002.158;;;;
2019/08/31 08:33:25;;;;;;;9.7;7.3;;;;;;;38.9;28.19141;1002.162;;;;
2019/08/31 08:35:50;;;;;;;8.6;7;;;;;;;38.5;29.1416;1002.115;;;;
2019/08/31 08:38:15;;;;;;;8.2;7.4;;;;;;;39.47;27.62793;1002.119;;;;
2019/08/31 08:40:40;;;;;;;9.4;6.8;;;;;;;39.42;27.34375;1002.123;;;;
2019/08/31 08:43:05;;;;;;;7.3;6.6;;;;;;;38.75;28.34082;1002.146;;;;
2019/08/31 08:45:30;;;;;;;9;7.5;;;;;;;37.19;30.60156;1002.114;;;;
2019/08/31 08:47:56;;;;;;;10;7.3;;;;;;;38.36;29.55859;1002.063;;;;
2019/08/31 08:50:21;;;;;;;7.9;7.1;;;;;;;39.46;27.38281;1002.066;;;;
2019/08/31 08:52:46;;;;;;;8.4;7.3;;;;;;;38.23;28.7832;1002.006;;;;
2019/08/31 08:55:11;;;;;;;8.4;7.1;;;;;;;37.94;29.27637;1002.002;;;;
2019/08/31 08:57:36;;;;;;;7.6;6.8;;;;;;;37.63;29.74316;1001.973;;;;
2019/08/31 09:00:01;;;;;;;7.6;6.4;;;;;;;38.27;28.80957;1001.975;;;;
2019/08/31 09:02:26;;;;;;;7.6;6.9;;;;;;;38.85;27.89551;1001.924;;;;
2019/08/31 09:04:51;;;;;;;7.9;6.9;;;;;;;38.72;28.0459;1001.855;;;;
2019/08/31 09:07:16;;;;;;;7.7;7;;;;;;;38.64;28.1748;1001.909;;;;
2019/08/31 09:09:41;;;;;;;7.9;7.1;;;;;;;38.19;29.26855;1001.811;;;;
2019/08/31 09:12:06;;;;;;;7.7;7;;;;;;;37.03;30.8584;1001.779;;;;
2019/08/31 09:14:31;;;;;;;8.2;6.9;;;;;;;38.23;28.82031;1001.703;;;;
2019/08/31 09:16:57;;;;;;;7.5;6.7;;;;;;;38.8;28.05078;1001.695;;;;
2019/08/31 09:19:22;;;;;;;7.8;7;;;;;;;39.13;27.82617;1001.691;;;;
2019/08/31 09:21:47;;;;;;;7.9;6.9;;;;;;;38.96;28.03613;1001.628;;;;
2019/08/31 09:24:12;;;;;;;9.1;7.1;;;;;;;39.69;26.88281;1001.647;;;;
2019/08/31 09:26:37;;;;;;;9.1;6.6;;;;;;;40.05;26.16992;1001.656;;;;
2019/08/31 09:29:02;;;;;;;7.8;6.8;;;;;;;39.15;27.05859;1001.606;;;;
2019/08/31 09:31:27;;;;;;;7.9;7.1;;;;;;;38.33;28.44824;1001.531;;;;
2019/08/31 09:33:53;;;;;;;7.7;6.6;;;;;;;37.64;29.00195;1001.532;;;;
2019/08/31 09:36:18;;;;;;;8.2;7.3;;;;;;;37.36;29.45801;1001.503;;;;
2019/08/31 09:38:43;;;;;;;7.5;6.8;;;;;;;36.57;30.46387;1001.466;;;;
2019/08/31 09:41:08;;;;;;;7.7;6.9;;;;;;;36.53;30.14551;1001.485;;;;
2019/08/31 09:43:33;;;;;;;7.4;6.6;;;;;;;35.53;31.41113;1001.427;;;;
2019/08/31 09:45:58;;;;;;;7.7;6.8;;;;;;;36.29;30.39648;1001.362;;;;
2019/08/31 09:48:23;;;;;;;8;7.1;;;;;;;36.19;30.71777;1001.385;;;;
2019/08/31 09:50:49;;;;;;;7.7;6.9;;;;;;;36.19;30.49902;1001.35;;;;
2019/08/31 09:53:13;;;;;;;7.7;6.9;;;;;;;36.36;30.64355;1001.307;;;;
2019/08/31 09:55:39;;;;;;;7.9;7.1;;;;;;;37.05;29.19531;1001.307;;;;
2019/08/31 09:58:04;;;;;;;7;6.3;;;;;;;37.44;28.50293;1001.318;;;;
2019/08/31 10:00:29;;;;;;;8.8;6.3;;;;;;;37.44;28.28418;1001.287;;;;
2019/08/31 10:02:54;;;;;;;7.5;6.7;;;;;;;37.97;27.44043;1001.261;;;;
2019/08/31 10:05:19;;;;;;;7.5;6.4;;;;;;;37.64;27.83398;1001.242;;;;
2019/08/31 10:07:44;;;;;;;10;6.5;;;;;;;38.31;27.11914;1001.223;;;;
2019/08/31 10:10:09;;;;;;;9;6.1;;;;;;;38.47;26.19043;1001.225;;;;
2019/08/31 10:12:34;;;;;;;9.1;6.7;;;;;;;35.3;31.06934;1001.21;;;;
2019/08/31 10:14:59;;;;;;;7.8;6.8;;;;;;;37.03;28.8418;1001.156;;;;
2019/08/31 10:17:25;;;;;;;7.2;6.5;;;;;;;38.65;26.7002;1001.096;;;;
2019/08/31 10:19:50;;;;;;;6.9;6.2;;;;;;;39.08;25.90723;1001.136;;;;
2019/08/31 10:22:15;;;;;;;7.5;6.7;;;;;;;37.82;27.3584;1000.993;;;;
2019/08/31 10:24:40;;;;;;;7.2;6.5;;;;;;;37.57;27.18555;1001.02;;;;
2019/08/31 10:27:05;;;;;;;7.6;6.4;;;;;;;36.55;28.65332;1000.962;;;;
2019/08/31 10:29:30;;;;;;;7.5;6.8;;;;;;;36.05;29.22949;1000.899;;;;
2019/08/31 10:31:56;;;;;;;7.2;6.3;;;;;;;36.47;28.80664;1000.867;;;;
2019/08/31 10:34:21;;;;;;;7.7;6;;;;;;;37.41;27.91699;1000.815;;;;
2019/08/31 10:36:46;;;;;;;6.6;6;;;;;;;38.31;26.15723;1000.79;;;;
2019/08/31 10:39:11;;;;;;;6.9;6.2;;;;;;;37.08;27.32617;1000.763;;;;
2019/08/31 10:41:37;;;;;;;9.1;6.7;;;;;;;37.5;26.7793;1000.708;;;;
2019/08/31 10:44:02;;;;;;;7;6.3;;;;;;;36.99;27.59961;1000.714;;;;
2019/08/31 10:46:27;;;;;;;10;6.9;;;;;;;34.98;30.33398;1000.686;;;;
2019/08/31 10:48:52;;;;;;;7;6.3;;;;;;;34.71;30.99219;1000.683;;;;
2019/08/31 10:51:17;;;;;;;7.1;6.4;;;;;;;34.48;31.14551;1000.619;;;;
2019/08/31 10:53:42;;;;;;;7.8;6.6;;;;;;;34.02;32.03223;1000.636;;;;
2019/08/31 10:56:08;;;;;;;8;6.5;;;;;;;33.91;32.08496;1000.576;;;;
2019/08/31 10:58:33;;;;;;;9.6;6.6;;;;;;;33.06;33.51855;1000.488;;;;
2019/08/31 11:00:58;;;;;;;8.9;6.6;;;;;;;33.01;33.73145;1000.441;;;;
2019/08/31 11:03:23;;;;;;;8.8;7.1;;;;;;;33.38;33.01172;1000.371;;;;
2019/08/31 11:05:48;;;;;;;7.1;6.4;;;;;;;33.93;32.32813;1000.365;;;;
2019/08/31 11:08:13;;;;;;;7.3;6.1;;;;;;;33.71;32.90332;1000.298;;;;
2019/08/31 11:10:39;;;;;;;8.3;6.3;;;;;;;33.94;32.24414;1000.285;;;;
2019/08/31 11:13:04;;;;;;;7.3;6.2;;;;;;;34.36;31.62109;1000.283;;;;
2019/08/31 11:15:30;;;;;;;7.6;6.6;;;;;;;34.01;31.93457;1000.203;;;;
2019/08/31 11:17:55;;;;;;;7.2;6.5;;;;;;;34.24;31.90234;1000.155;;;;
2019/08/31 11:20:20;;;;;;;7.8;6.3;;;;;;;34.82;30.83105;1000.214;;;;
2019/08/31 11:22:45;;;;;;;9.4;6.7;;;;;;;33.9;31.85547;1000.168;;;;
2019/08/31 11:25:10;;;;;;;7.8;6.2;;;;;;;33.42;32.50879;1000.13;;;;
2019/08/31 11:27:35;;;;;;;7.4;6.6;;;;;;;32.92;33.36426;1000.086;;;;
2019/08/31 11:30:00;;;;;;;7.8;6.7;;;;;;;32.86;33.20215;1000.082;;;;
2019/08/31 11:32:25;;;;;;;7.6;6.6;;;;;;;33.09;33.19531;1000.004;;;;
2019/08/31 11:34:50;;;;;;;8;6.2;;;;;;;33.74;32.03613;1000.069;;;;
2019/08/31 11:37:16;;;;;;;7;6.3;;;;;;;33.77;31.7002;1000.046;;;;
2019/08/31 11:39:41;;;;;;;6.8;6.1;;;;;;;33.91;31.19141;999.9995;;;;
2019/08/31 11:42:06;;;;;;;7;6.3;;;;;;;34.23;30.9248;1000.015;;;;
2019/08/31 11:44:31;;;;;;;7.1;6.4;;;;;;;34.19;30.99414;999.9816;;;;
2019/08/31 11:46:56;;;;;;;7.1;6.2;;;;;;;34.08;31.10645;999.9961;;;;
2019/08/31 11:49:21;;;;;;;6.7;6.1;;;;;;;33.51;32.03223;999.9437;;;;
2019/08/31 11:51:46;;;;;;;6.8;6.1;;;;;;;34.12;31.20605;999.9147;;;;
2019/08/31 11:54:11;;;;;;;6.6;6;;;;;;;33.02;32.44434;999.8455;;;;
2019/08/31 11:56:37;;;;;;;7.5;6.5;;;;;;;32.99;32.91113;999.7913;;;;
2019/08/31 11:59:01;;;;;;;7.1;6.4;;;;;;;32.94;32.95605;999.7859;;;;
2019/08/31 12:01:27;;;;;;;6.9;6.1;;;;;;;32.98;32.63379;999.7731;;;;
2019/08/31 12:03:52;;;;;;;7.1;6.4;;;;;;;32.87;32.43262;999.7407;;;;
2019/08/31 12:06:17;;;;;;;7.6;6.5;;;;;;;32.65;33.15137;999.7336;;;;
2019/08/31 12:08:42;;;;;;;6.8;6.1;;;;;;;33.11;32.24512;999.7181;;;;
2019/08/31 12:11:07;;;;;;;8.4;6.4;;;;;;;32.93;32.50879;999.652;;;;
2019/08/31 12:13:32;;;;;;;9.1;6;;;;;;;33.02;32.46777;999.6376;;;;
2019/08/31 12:15:58;;;;;;;8.2;6.6;;;;;;;33.36;31.75684;999.6138;;;;
2019/08/31 12:18:23;;;;;;;7;6.1;;;;;;;33.7;31.22559;999.562;;;;
2019/08/31 12:20:48;;;;;;;7.2;6.1;;;;;;;33.77;31.50781;999.5621;;;;
2019/08/31 12:23:13;;;;;;;8.1;6.4;;;;;;;33.67;31.52539;999.4943;;;;
2019/08/31 12:25:38;;;;;;;7;6.2;;;;;;;33.64;31.52246;999.4794;;;;
2019/08/31 12:28:03;;;;;;;7.2;6.5;;;;;;;33.54;31.9502;999.4386;;;;
2019/08/31 12:30:28;;;;;;;8.5;6.7;;;;;;;33.29;32.125;999.3696;;;;
2019/08/31 12:32:53;;;;;;;8.4;6.8;;;;;;;33.35;32.02148;999.3225;;;;
2019/08/31 12:35:18;;;;;;;7.2;6.4;;;;;;;33.33;32.50195;999.259;;;;
2019/08/31 12:37:43;;;;;;;7.1;6.4;;;;;;;33.17;32.84082;999.2086;;;;
2019/08/31 12:40:09;;;;;;;7;6.3;;;;;;;32.76;33.38867;999.1308;;;;
2019/08/31 12:42:34;;;;;;;7.5;6.7;;;;;;;32.53;33.64746;999.0938;;;;
2019/08/31 12:44:59;;;;;;;8.1;6.6;;;;;;;32.65;33.65625;999.1389;;;;
2019/08/31 12:47:24;;;;;;;7.5;6.7;;;;;;;32.8;33.9082;999.1347;;;;
2019/08/31 12:49:49;;;;;;;9.1;6.5;;;;;;;32.98;33.8252;999.1071;;;;
2019/08/31 12:52:14;;;;;;;7.5;6.3;;;;;;;32.97;34.1377;999.1012;;;;
2019/08/31 12:54:39;;;;;;;7;6.3;;;;;;;33.03;34.44434;999.0904;;;;
2019/08/31 12:57:04;;;;;;;7.6;6.8;;;;;;;33.46;33.94531;999.0941;;;;
2019/08/31 12:59:29;;;;;;;8;6.9;;;;;;;33.61;33.61914;999.0357;;;;
2019/08/31 13:01:54;;;;;;;7;6.3;;;;;;;33.68;33.33398;999.0173;;;;
2019/08/31 13:04:19;;;;;;;7.9;6.6;;;;;;;33.85;32.8291;998.9155;;;;
2019/08/31 13:06:44;;;;;;;8;6.5;;;;;;;33.82;32.99609;998.8748;;;;
2019/08/31 13:09:10;;;;;;;7.4;6.6;;;;;;;33.64;33.1875;998.8542;;;;
2019/08/31 13:11:35;;;;;;;7.9;6.6;;;;;;;33.43;33.52148;998.8214;;;;
2019/08/31 13:14:00;;;;;;;7.6;6.8;;;;;;;33.63;33.56055;998.7739;;;;
2019/08/31 13:16:25;;;;;;;10.6;7.9;;;;;;;33.95;34.25977;998.7248;;;;
2019/08/31 13:18:50;;;;;;;8.7;7.8;;;;;;;33.91;34.66699;998.6717;;;;
2019/08/31 13:21:15;;;;;;;9.3;8.3;;;;;;;34.03;34.54395;998.6584;;;;
2019/08/31 13:23:40;;;;;;;9.3;7.9;;;;;;;33.56;35.45996;998.6606;;;;
2019/08/31 13:26:05;;;;;;;8.6;7.7;;;;;;;33.44;35.74023;998.6883;;;;
2019/08/31 13:28:30;;;;;;;10.9;8.4;;;;;;;33.7;35.42285;998.6082;;;;
2019/08/31 13:30:56;;;;;;;9.2;8;;;;;;;33.68;35.25293;998.5515;;;;
2019/08/31 13:33:21;;;;;;;8.8;7.9;;;;;;;33.7;35.50781;998.5314;;;;
2019/08/31 13:35:46;;;;;;;9.4;7.7;;;;;;;33.63;35.71777;998.533;;;;
2019/08/31 13:38:11;;;;;;;9.4;7.9;;;;;;;33.61;35.60938;998.4904;;;;
2019/08/31 13:40:36;;;;;;;9.5;7.8;;;;;;;33.75;35.53613;998.4352;;;;
2019/08/31 13:43:01;;;;;;;10.1;7.7;;;;;;;33.69;35.62695;998.4637;;;;
2019/08/31 13:45:26;;;;;;;9.2;7.9;;;;;;;33.66;35.50488;998.4359;;;;
2019/08/31 13:47:51;;;;;;;8.8;7.9;;;;;;;33.67;35.5166;998.3908;;;;
2019/08/31 13:50:16;;;;;;;8.8;7.9;;;;;;;33.8;35.31055;998.3889;;;;
2019/08/31 13:52:41;;;;;;;9.1;7.9;;;;;;;33.67;35.25098;998.3627;;;;
2019/08/31 13:55:06;;;;;;;9;7.7;;;;;;;33.46;35.45215;998.2858;;;;
2019/08/31 13:57:32;;;;;;;8.8;7.9;;;;;;;33.51;35.56543;998.2927;;;;
2019/08/31 13:59:57;;;;;;;10.5;7.8;;;;;;;33.51;35.80664;998.262;;;;
2019/08/31 14:02:22;;;;;;;9.6;7.6;;;;;;;33.6;34.99316;998.2855;;;;